Hit Tracker is now ESPN Home Run Tracker! Hit Tracker founder Greg Rybarczyk is now collaborating with the ESPN Stats & Information Group to continue tracking all MLB home runs, and helping baseball fans know "How Far It Really Went!™" Please credit any information on this site to ESPN Stats & Information Group. For more information and analysis on home runs, please contact founder Greg Rybarczyk. E-Mail ESPN Home Run Tracker
Main Page | Ballparks | Park Overlays | Glossary | Highlight Homers | Feedback | Bio | 3 Types of HR's | AAA Home Run Derby Last Updated: July 1, 2016, 11:43 pm PST
If you want to know "How Far It Really Went!", then you've come to the right place! Welcome to the ESPN Home Run Tracker, where you can find accurate, transparently verifiable distances for every home run hit in MLB games. Please also check out the ESPN MLB Scoreboard throughout the 2016 season! Contact us at grybar@hittrackeronline.com.
Season:
Ballpark detail for Citi Field
Ballpark # of Home Runs HR per game Avg.
True
Distance
Avg.
Speed
Off
Bat
Avg.
Std.
Dist.
Citi Field 79 2.14 395.6 103.1 393

Scatter Plot of Home Runs Citi Field
 Overlay Ballpark:
Without range rings   With range rings

2016 Season Home Runs for Citi Field
Click headers to sort
Date Video Path Hitter Hitter
Team
Pitcher Pitcher
Team
INN Ballpark Type/
Luck
True
Dist.
Speed
Off
Bat
Elev.
Angle
Horiz.
Angle
Apex Impact Due To: Std.
Dist.
#
Parks
Wind Temp. ^ Alt.
06/30/16 Video View Baez, Javier CHC Matz, Steven NYM 6 Citi Field PL 392 100.2 37.6 116.3 123 33 3 0 358 20
05/28/16 Video View Gonzalez, Adrian LAD Robles, Hansel NYM 8 Citi Field JE/L 370 95.9 33.4 68.2 98 9 2 0 359 15
06/21/16 Video View Cespedes, Yoenis NYM Kennedy, Ian KC 4 Citi Field JE 424 103.4 30.7 93.3 118 1 2 0 421 26
06/30/16 Video View Bryant, Kris CHC Matz, Steven NYM 1 Citi Field PL 400 99.6 32.2 110.8 98 19 2 0 379 26
06/30/16 Video View Cespedes, Yoenis NYM Lackey, John CHC 6 Citi Field ND 466 112.0 31.2 105.6 126 18 2 0 446 30
05/28/16 Video View Utley, Chase LAD Verrett, Logan NYM 6 Citi Field PL 403 101.8 25.6 80.8 78 2 1 0 400 15
05/28/16 Video View Utley, Chase LAD Robles, Hansel NYM 7 Citi Field PL 388 99.1 27.9 76.1 81 4 1 0 383 17
05/28/16 Video View Kendrick, Howard LAD Robles, Hansel NYM 8 Citi Field PL 387 111.7 21.7 120.0 54 2 1 0 384 30
05/28/16 Video View Seager, Corey LAD Henderson, Jim NYM 9 Citi Field JE 366 97.2 31.9 118.4 87 5 1 0 359 22
05/30/16 Video View Walker, Neil NYM Quintana, Jose CHW 7 Citi Field PL 397 99.7 31.8 98.5 112 0 1 0 396 24
06/01/16 Video View Frazier, Todd CHW deGrom, Jacob NYM 7 Citi Field PL 420 104.5 27.9 97.2 105 -6 1 0 424 30
06/15/16 Video View Johnson, Kelly NYM Locke, Jeff PIT 3 Citi Field ND 429 105.2 27.4 78.1 91 9 1 0 420 29
06/16/16 Video View Granderson, Curtis NYM Nicasio, Juan PIT 1 Citi Field PL 414 104.2 30.2 77.3 111 -2 1 0 415 29
06/16/16 Video View Conforto, Michael NYM Nicasio, Juan PIT 3 Citi Field PL 411 102.7 32.9 84.7 129 0 1 0 410 23
06/19/16 Video View Markakis, Nick ATL deGrom, Jacob NYM 6 Citi Field PL 399 98.0 30.6 79.7 95 12 1 0 386 4
06/21/16 Video View Cabrera, Asdrubal NYM Kennedy, Ian KC 1 Citi Field JE/L 366 95.4 30.6 107.5 87 3 1 0 362 3
06/22/16 Video View Cuthbert, Cheslor KC Syndergaard, Noah NYM 5 Citi Field PL 384 105.9 23.9 113.7 62 1 1 0 382 30
06/22/16 Video View Cabrera, Asdrubal NYM Duffy, Danny KC 5 Citi Field JE 407 100.9 26.5 96.7 82 3 1 0 402 12
06/22/16 Video View Reynolds, Matt NYM Soria, Joakim KC 6 Citi Field PL 403 102.5 26.2 77.9 79 1 1 0 401 27
07/01/16 Video View Loney, James NYM Hammel, Jason CHC 2 Citi Field PL/L 350 100.0 41.6 60.3 144 22 1 0 326 2
07/01/16 Video View Cabrera, Asdrubal NYM Hammel, Jason CHC 2 Citi Field JE/L 370 96.3 35.4 67.1 108 14 1 0 355 10
07/01/16 Video View Cabrera, Asdrubal NYM Hammel, Jason CHC 5 Citi Field PL 380 102.1 36.6 70.0 135 4 1 0 375 29
04/30/16 Video View Flores, Wilmer NYM Cain, Matt SF 6 Citi Field JE 381 105.1 21.8 104.2 58 0 0 0 381 6
05/01/16 Video View Posey, Buster SF Verrett, Logan NYM 8 Citi Field PL 392 105.3 22.5 103.1 64 1 0 0 392 18
05/27/16 Video View Wright, David NYM Hatcher, Chris LAD 4 Citi Field PL 429 107.0 23.7 83.5 77 1 0 0 427 26
05/27/16 Video View Lagares, Juan NYM Blanton, Joe LAD 5 Citi Field PL 372 98.6 30.4 64.8 86 3 0 0 369 26
05/27/16 Video View Granderson, Curtis NYM Baez, Pedro LAD 9 Citi Field PL/L 350 99.3 40.8 59.7 138 18 0 0 332 8
05/28/16 Video View Lagares, Juan NYM Howell, J.P. LAD 8 Citi Field JE 412 104.5 23.1 94.8 70 0 0 0 412 17
05/29/16 Video View Cabrera, Asdrubal NYM Kershaw, Clayton LAD 6 Citi Field JE 370 96.9 31.7 101.5 106 -8 0 0 378 13
05/31/16 Video View Walker, Neil NYM Latos, Mat CHW 3 Citi Field PL 390 107.2 24.8 60.4 64 3 0 0 386 30
05/31/16 Video View Frazier, Todd CHW Matz, Steven NYM 6 Citi Field PL 429 109.0 22.2 96.9 70 0 0 0 429 29
05/31/16 Video View Saladino, Tyler CHW Robles, Hansel NYM 8 Citi Field PL 410 103.0 28.4 106.3 88 7 0 0 402 30
06/14/16 Video View Kang, Jung Ho PIT deGrom, Jacob NYM 6 Citi Field PL 425 115.2 18.6 97.5 55 -1 0 -1 427 27
06/14/16 Video View Marte, Starling PIT Henderson, Jim NYM 8 Citi Field JE 415 105.6 22.4 85.7 71 0 0 0 415 21
06/15/16 Video View Flores, Wilmer NYM Scahill, Rob PIT 6 Citi Field PL 396 106.1 24.8 112.4 67 3 0 0 392 30
06/16/16 Video View Walker, Neil NYM Nicasio, Juan PIT 3 Citi Field PL 400 102.4 33.1 76.2 123 0 0 0 400 29
06/16/16 Video View Joyce, Matt PIT Colon, Bartolo NYM 8 Citi Field PL 437 107.7 23.7 87.4 84 0 0 0 437 28
06/16/16 Video View McCutchen, Andrew PIT Reed, Addison NYM 9 Citi Field JE 374 105.3 24.5 119.8 61 0 0 0 373 30
06/18/16 Video View Cespedes, Yoenis NYM Blair, Aaron ATL 3 Citi Field PL 418 103.2 26.9 97.8 89 3 0 0 414 29
06/18/16 Video View Flores, Wilmer NYM Blair, Aaron ATL 4 Citi Field PL 404 105.4 29.2 116.8 89 4 0 0 400 30
06/18/16 Video View Francoeur, Jeff ATL Matz, Steven NYM 6 Citi Field ND 417 105.7 28.1 108.6 90 5 0 0 412 30
06/18/16 Video View Flowers, Tyler ATL Henderson, Jim NYM 7 Citi Field PL 425 110.8 20.2 95.9 63 0 0 0 425 26
07/01/16 Video View Nimmo, Brandon NYM Hammel, Jason CHC 4 Citi Field ND 435 107.3 26.6 81.2 98 -1 0 0 436 30
07/01/16 Video View Bryant, Kris CHC Degrom, Jacob NYM 4 Citi Field ND 418 109.1 27.5 113.8 90 -2 0 0 419 30
07/01/16 Video View Cespedes, Yoenis NYM Hammel, Jason CHC 5 Citi Field ND 414 110.1 25.4 115.3 75 1 0 0 413 30
04/11/16 Video View Stanton, Giancarlo MIA Matz, Steven NYM 2 Citi Field PL 417 108.4 21.6 97.9 69 0 -1 0 418 30
04/11/16 Video View Ozuna, Marcell MIA Bastardo, Antonio NYM 6 Citi Field PL 350 97.5 30.2 57.5 80 -3 -1 0 354 28
04/25/16 Video View Conforto, Michael NYM Iglesias, Raisel CIN 1 Citi Field PL 424 106.7 22.9 84.9 79 1 -1 0 424 25
04/25/16 Video View Walker, Neil NYM Ramirez, J.C. CIN 7 Citi Field PL 398 106.9 23.0 74.2 67 0 -1 0 398 29
04/26/16 Video View De Jesus, Ivan CIN Colon, Bartolo NYM 4 Citi Field PL 408 105.7 22.0 97.1 70 1 -1 0 407 19
04/27/16 Video View Walker, Neil NYM Moscot, Jon CIN 3 Citi Field PL 420 104.0 26.0 94.7 92 0 -1 0 421 26
05/01/16 Video View Pence, Hunter SF Syndergaard, Noah NYM 4 Citi Field PL 372 103.5 25.1 64.9 67 -1 -1 0 375 28
05/02/16 Video View Cespedes, Yoenis NYM Foltynewicz, Mike ATL 1 Citi Field PL 411 102.0 27.2 94.5 94 0 -1 0 413 23
05/04/16 Video View Rivera, Rene NYM Chacin, Jhoulys ATL 2 Citi Field JE 355 101.2 26.5 124.6 64 0 -1 0 357 29
05/04/16 Video View Cabrera, Asdrubal NYM Chacin, Jhoulys ATL 3 Citi Field JE 413 103.7 24.3 96.2 80 3 -1 0 411 19
05/04/16 Video View Duda, Lucas NYM Chacin, Jhoulys ATL 5 Citi Field JE 398 101.4 25.1 98.5 79 2 -1 0 397 8
05/17/16 Video View Conforto, Michael NYM Scherzer, Max WSH 3 Citi Field JE 368 100.3 27.3 65.2 74 0 -1 0 370 26
05/18/16 Video View Cespedes, Yoenis NYM Gonzalez, Gio WSH 4 Citi Field PL 407 105.8 26.2 109.0 79 3 -1 0 405 30
05/19/16 Video View Murphy, Daniel WSH Harvey, Matt NYM 1 Citi Field JE 422 104.0 25.7 85.6 91 2 -1 0 421 27
05/20/16 Video View Carter, Chris MIL Matz, Steven NYM 1 Citi Field PL 409 99.3 30.6 84.0 100 12 -1 0 398 12
05/20/16 Video View Conforto, Michael NYM Peralta, Wily MIL 6 Citi Field JE/L 369 95.2 33.7 112.4 97 15 -1 0 355 3
05/21/16 Video View Granderson, Curtis NYM Davies, Zach MIL 1 Citi Field PL 383 103.9 26.7 63.3 74 1 -1 0 383 29
05/21/16 Video View Flores, Ramon MIL deGrom, Jacob NYM 2 Citi Field JE 382 98.5 29.3 74.7 90 1 -1 0 381 21
05/21/16 Video View Cespedes, Yoenis NYM Davies, Zach MIL 6 Citi Field PL 363 99.7 32.5 116.9 101 -8 -1 0 373 30
05/22/16 Video View Conforto, Michael NYM Anderson, Chase MIL 1 Citi Field ND 448 109.3 26.8 82.8 106 -2 -1 0 450 30
04/09/16 Video View Howard, Ryan PHI Colon, Bartolo NYM 5 Citi Field PL 396 103.9 24.3 103.0 72 0 -2 0 398 30
04/10/16 Video View Herrera, Odubel PHI Harvey, Matt NYM 6 Citi Field JE 391 99.8 26.9 80.2 85 1 -2 0 391 10
04/10/16 Video View Cespedes, Yoenis NYM Hellickson, Jeremy PHI 6 Citi Field PL 398 101.8 27.1 104.3 82 4 -2 0 396 30
04/25/16 Video View Duda, Lucas NYM Iglesias, Raisel CIN 3 Citi Field JE 380 99.5 32.4 74.4 111 -3 -2 0 385 29
04/26/16 Video View Cespedes, Yoenis NYM Finnegan, Brandon CIN 7 Citi Field JE 369 112.2 20.2 121.2 47 0 -2 0 371 22
04/29/16 Video View Cespedes, Yoenis NYM Broadway, Mike SF 3 Citi Field JE 363 105.8 23.4 122.9 56 0 -2 0 365 26
04/29/16 Video View Pagan, Angel SF Blevins, Jerry NYM 7 Citi Field PL 383 102.2 26.3 108.8 77 -1 -2 0 386 30
05/02/16 Video View Duda, Lucas NYM Foltynewicz, Mike ATL 1 Citi Field PL 360 98.3 33.6 61.7 101 -1 -2 0 364 30
05/03/16 Video View Smith, Mallex ATL Harvey, Matt NYM 5 Citi Field JE 345 95.6 31.1 121.7 80 0 -2 0 346 21
04/27/16 Video View Cozart, Zack CIN Harvey, Matt NYM 1 Citi Field PL 388 101.5 31.6 109.7 106 0 -3 0 390 30
04/30/16 Video View Conforto, Michael NYM Cain, Matt SF 5 Citi Field PL 357 97.7 35.6 66.3 115 0 -3 0 360 25
05/02/16 Video View Wright, David NYM Foltynewicz, Mike ATL 1 Citi Field PL 391 102.0 33.8 104.7 125 0 -3 0 394 30
05/04/16 Video View Duda, Lucas NYM Chacin, Jhoulys ATL 3 Citi Field PL/L 413 101.8 29.4 87.6 108 1 -3 0 414 23
05/17/16 Video View Granderson, Curtis NYM Scherzer, Max WSH 1 Citi Field PL 359 99.1 36.3 67.3 124 -1 -3 0 363 25


About HitTracker | Contact Us
© 2006-2016 HitTrackerOnline